Broward — WCU2633 — position and weather

sailwx.info

Track history (hours):
 
Tides and Currents Weather Stations Pressure Air Temp Water Temp Dewpoint Dewpoint Depression Visibility Wind Speed Wind Dir Waves Ship Positions

Broward

Owner: SEABULK TOWING, FORT LAUDERDALE, FL. More information available from US FCC via Universal Licensing System and Coast Guard Vessel Documentation Center.

Last reported at 2018-Jun-10 14:50 UTC. Time now 2018-Jun-20 23:03 UTC.
Position N 25°30' W 080°03'.
Warning: this ship's position is 10 days out of date.

Length 30 m; draft 6.5 m.

Type: Tug. MMSI: 366693850.

Date/timePositionNaut miles runAvg speedWind from/ knotsBaromVisibWave heightAir tempDewpointWater temp
2018-Jun-10 14:50N 25°30' W 080°03'3 8.6
2018-Jun-10 14:25N 25°34' W 080°03'8 9.1
2018-Jun-10 13:30N 25°42' W 080°04'5 9.3
2018-Jun-10 13:00N 25°46' W 080°05'5 9.2
2018-Jun-10 12:30N 25°51' W 080°05'5 9.1
2018-Jun-10 11:59N 25°56' W 080°05'5 9.4
2018-Jun-10 11:30N 26°00' W 080°05'4 9.1
2018-Jun-10 11:00N 26°05' W 080°05'2 3.6
2018-Jun-10 10:30N 26°05' W 080°07'0 0.0
2018-Jun-10 10:00N 26°05' W 080°07'0 0.0
2018-Jun-10 09:30N 26°05' W 080°07'0 0.0
2018-Jun-10 09:00N 26°05' W 080°07'0 0.0
2018-Jun-10 08:31N 26°05' W 080°07'0 0.0
2018-Jun-10 08:00N 26°05' W 080°07'0 0.0
2018-Jun-10 07:30N 26°05' W 080°07'0 0.0
2018-Jun-10 06:59N 26°05' W 080°07'0 0.0
2018-Jun-10 06:31N 26°05' W 080°07'0 0.0
2018-Jun-10 06:00N 26°05' W 080°07'0 0.0
2018-Jun-10 05:30N 26°05' W 080°07'0 0.0
2018-Jun-10 05:00N 26°05' W 080°07'0 0.0
2018-Jun-10 04:30N 26°05' W 080°07'0 0.0
2018-Jun-10 04:00N 26°05' W 080°07'0 0.0
2018-Jun-10 03:30N 26°05' W 080°07'0 0.0
2018-Jun-10 03:00N 26°05' W 080°07'0 0.0
2018-Jun-10 02:30N 26°05' W 080°07'0 0.0
2018-Jun-10 02:00N 26°05' W 080°07'0 0.0
2018-Jun-10 01:30N 26°05' W 080°07'0 0.0
2018-Jun-10 01:00N 26°05' W 080°07'0 0.0
2018-Jun-10 00:30N 26°05' W 080°07'0 0.0
2018-Jun-10 00:00N 26°05' W 080°07'0 0.0
2018-Jun-09 23:30N 26°05' W 080°07'0 0.0
2018-Jun-09 23:00N 26°05' W 080°07'0 0.0
2018-Jun-09 22:28N 26°05' W 080°07'0 0.0
2018-Jun-09 22:01N 26°05' W 080°07'0 0.0
2018-Jun-09 21:30N 26°05' W 080°07'0 0.0
2018-Jun-09 21:01N 26°05' W 080°07'0 0.0
2018-Jun-09 20:30N 26°05' W 080°07'0 0.0
2018-Jun-09 20:00N 26°05' W 080°07'0 0.0
2018-Jun-09 19:30N 26°05' W 080°07'0 0.0
2018-Jun-09 19:00N 26°05' W 080°07'0 0.0
2018-Jun-09 18:31N 26°05' W 080°07'0 0.0
2018-Jun-09 18:01N 26°05' W 080°07'1 1.0
2018-Jun-09 17:30N 26°04' W 080°07'0 0.5
2018-Jun-09 17:00N 26°04' W 080°07'1 1.5
2018-Jun-09 16:31N 26°05' W 080°07'0 0.0
2018-Jun-09 16:00N 26°05' W 080°07'0 0.0
2018-Jun-09 15:00N 26°05' W 080°07'0 0.0
2018-Jun-09 14:30N 26°05' W 080°07'0 0.0
2018-Jun-09 14:00N 26°05' W 080°07'0 0.0
2018-Jun-09 13:30N 26°05' W 080°07'0 0.0
2018-Jun-09 13:00N 26°05' W 080°07'0 0.0
2018-Jun-09 12:30N 26°05' W 080°07'0 0.0
2018-Jun-09 12:00N 26°05' W 080°07'0 0.0
2018-Jun-09 11:30N 26°05' W 080°07'0 0.0
2018-Jun-09 11:00N 26°05' W 080°07'0 0.0
2018-Jun-09 10:30N 26°05' W 080°07'0 0.0
2018-Jun-09 10:00N 26°05' W 080°07'0 0.0
2018-Jun-09 09:30N 26°05' W 080°07'0 0.0
2018-Jun-09 09:00N 26°05' W 080°07'0 0.0
2018-Jun-09 08:30N 26°05' W 080°07'0 0.0
2018-Jun-09 08:00N 26°05' W 080°07'0 0.0
2018-Jun-09 07:30N 26°05' W 080°07'1 1.8
2018-Jun-09 07:00N 26°04' W 080°07'2 3.5
2018-Jun-09 06:30N 26°06' W 080°06'1 1.2
2018-Jun-09 06:01N 26°06' W 080°05'2 3.4
2018-Jun-09 05:30N 26°05' W 080°07'0 0.2
2018-Jun-09 05:01N 26°05' W 080°07'1 2.0
2018-Jun-09 04:30N 26°06' W 080°06'1 1.6
2018-Jun-09 03:59N 26°05' W 080°07'0 0.0
2018-Jun-09 03:30N 26°05' W 080°07'0 0.0
2018-Jun-09 03:01N 26°05' W 080°07'0 0.0
2018-Jun-09 02:30N 26°05' W 080°07'0 0.0
2018-Jun-09 02:00N 26°05' W 080°07'0 0.0
2018-Jun-09 01:31N 26°05' W 080°07'0 0.0
2018-Jun-09 01:00N 26°05' W 080°07'0 0.0
2018-Jun-09 00:30N 26°05' W 080°07'0 0.0
2018-Jun-09 00:00N 26°05' W 080°07'0 0.0
2018-Jun-08 23:30N 26°05' W 080°07'0 0.0
2018-Jun-08 23:00N 26°05' W 080°07'0 0.0
2018-Jun-08 22:30N 26°05' W 080°07'0 0.0
2018-Jun-08 22:00N 26°05' W 080°07'0 0.0
2018-Jun-08 21:30N 26°05' W 080°07'0 0.0
2018-Jun-08 21:00N 26°05' W 080°07'0 0.0
2018-Jun-08 20:29N 26°05' W 080°07'0 0.0
2018-Jun-08 20:00N 26°05' W 080°07'0 0.0
2018-Jun-08 19:30N 26°05' W 080°07'0 0.0
2018-Jun-08 18:59N 26°05' W 080°07'0 0.0
2018-Jun-08 18:30N 26°05' W 080°07'0 0.0
2018-Jun-08 18:00N 26°05' W 080°07'0 0.0
2018-Jun-08 17:30N 26°05' W 080°07'0 0.0
2018-Jun-08 17:01N 26°05' W 080°07'0 0.0
2018-Jun-08 16:30N 26°05' W 080°07'0 0.0
2018-Jun-08 16:00N 26°05' W 080°07'0 0.0
2018-Jun-08 15:31N 26°05' W 080°07'0 0.0
2018-Jun-08 15:00N 26°05' W 080°07'0 0.0
2018-Jun-08 14:30N 26°05' W 080°07'1 1.5
2018-Jun-08 14:00N 26°04' W 080°07'2 3.7
2018-Jun-08 13:30N 26°06' W 080°06'1 2.7
2018-Jun-08 13:00N 26°05' W 080°07'0 0.0
2018-Jun-08 12:30N 26°05' W 080°07'0 0.0
2018-Jun-08 12:00N 26°05' W 080°07'0 0.0
2018-Jun-08 11:29N 26°05' W 080°07'0 0.0
2018-Jun-08 11:00N 26°05' W 080°07'0 0.0
2018-Jun-08 10:30N 26°05' W 080°07'0 0.0
2018-Jun-08 10:00N 26°05' W 080°07'0 0.0
2018-Jun-08 09:30N 26°05' W 080°07'0 0.0
2018-Jun-08 09:00N 26°05' W 080°07'0 0.0
2018-Jun-08 08:30N 26°05' W 080°07'0 0.0
2018-Jun-08 08:00N 26°05' W 080°07'0 0.0
2018-Jun-08 07:30N 26°05' W 080°07'0 0.0
2018-Jun-08 07:00N 26°05' W 080°07'0 0.0
2018-Jun-08 06:30N 26°05' W 080°07'0 0.9
2018-Jun-08 06:00N 26°05' W 080°07'0 0.9
2018-Jun-08 05:30N 26°06' W 080°07'0 0.3
2018-Jun-08 04:59N 26°06' W 080°07'0 0.6
2018-Jun-08 04:30N 26°06' W 080°07'1 2.9
2018-Jun-08 04:00N 26°06' W 080°05'1 2.9
2018-Jun-08 03:30N 26°06' W 080°07'0 0.7
2018-Jun-08 03:00N 26°06' W 080°07'1 1.4
2018-Jun-08 02:29N 26°05' W 080°07'0 0.0
2018-Jun-08 02:00N 26°05' W 080°07'0 0.0
2018-Jun-08 01:30N 26°05' W 080°07'0 0.0
2018-Jun-08 01:00N 26°05' W 080°07'0 0.0
2018-Jun-08 00:29N 26°05' W 080°07'0 0.0
2018-Jun-08 00:00N 26°05' W 080°07'0 0.0
2018-Jun-07 23:30N 26°05' W 080°07'0 0.0
2018-Jun-07 23:00N 26°05' W 080°07'0 0.0
2018-Jun-07 22:30N 26°05' W 080°07'0 0.0
2018-Jun-07 22:00N 26°05' W 080°07'0 0.0
2018-Jun-07 21:30N 26°05' W 080°07'0 0.0
2018-Jun-07 21:00N 26°05' W 080°07'0 0.1
2018-Jun-07 20:30N 26°05' W 080°07'0 0.4
2018-Jun-07 20:00N 26°05' W 080°07'1 1.9
2018-Jun-07 19:30N 26°04' W 080°07'1 1.3
2018-Jun-07 19:00N 26°05' W 080°07'0 0.2
2018-Jun-07 18:30N 26°05' W 080°07'0 0.0
2018-Jun-07 18:00N 26°05' W 080°07'0 0.0
2018-Jun-07 17:30N 26°05' W 080°07'0 0.0
2018-Jun-07 17:00N 26°05' W 080°07'0 0.0
2018-Jun-07 16:30N 26°05' W 080°07'0 0.0
2018-Jun-07 16:00N 26°05' W 080°07'0 0.0
2018-Jun-07 15:30N 26°05' W 080°07'0 0.0
2018-Jun-07 15:00N 26°05' W 080°07'0 0.0
2018-Jun-07 14:31N 26°05' W 080°07'0 0.0
2018-Jun-07 14:00N 26°05' W 080°07'0 0.0
2018-Jun-07 13:31N 26°05' W 080°07'0 0.0
2018-Jun-07 13:00N 26°05' W 080°07'0 0.0
2018-Jun-07 12:30N 26°05' W 080°07'0 0.0
2018-Jun-07 12:00N 26°05' W 080°07'0 0.0
2018-Jun-07 11:30N 26°05' W 080°07'0 0.0
2018-Jun-07 11:00N 26°05' W 080°07'0 0.0
2018-Jun-07 10:31N 26°05' W 080°07'0 0.0
2018-Jun-07 10:00N 26°05' W 080°07'0 0.0
2018-Jun-07 09:30N 26°05' W 080°07'0 0.0
2018-Jun-07 09:00N 26°05' W 080°07'0 0.0
2018-Jun-07 08:31N 26°05' W 080°07'0 0.0
2018-Jun-07 08:01N 26°05' W 080°07'1 1.3
2018-Jun-07 07:30N 26°06' W 080°07'0 0.5
2018-Jun-07 07:00N 26°06' W 080°07'0 0.7
2018-Jun-07 06:29N 26°05' W 080°07'0 0.0
2018-Jun-07 06:00N 26°05' W 080°07'0 0.0
2018-Jun-07 05:30N 26°05' W 080°07'1 2.5
2018-Jun-07 05:00N 26°04' W 080°07'1 1.7
2018-Jun-07 04:30N 26°05' W 080°07'1 1.2
2018-Jun-07 04:00N 26°06' W 080°07'1 2.9
2018-Jun-07 03:30N 26°04' W 080°07'1 1.6
2018-Jun-07 03:00N 26°05' W 080°07'0 0.0
2018-Jun-07 02:30N 26°05' W 080°07'0 0.0
2018-Jun-07 01:59N 26°05' W 080°07'0 0.0
2018-Jun-07 01:30N 26°05' W 080°07'0 0.0
2018-Jun-07 01:00N 26°05' W 080°07'0 0.0
2018-Jun-07 00:30N 26°05' W 080°07'0 0.0
2018-Jun-07 00:00N 26°05' W 080°07'0 0.0
2018-Jun-06 23:30N 26°05' W 080°07'0 0.0
2018-Jun-06 23:00N 26°05' W 080°07'0 0.0
2018-Jun-06 22:30N 26°05' W 080°07'0 0.0
2018-Jun-06 22:00N 26°05' W 080°07'0 0.0
2018-Jun-06 21:30N 26°05' W 080°07'0 0.0
2018-Jun-06 21:00N 26°05' W 080°07'0 0.0
2018-Jun-06 20:30N 26°05' W 080°07'0 0.0
2018-Jun-06 20:00N 26°05' W 080°07'0 0.0
2018-Jun-06 19:30N 26°05' W 080°07'0 0.0
2018-Jun-06 19:00N 26°05' W 080°07'0 0.0
2018-Jun-06 18:30N 26°05' W 080°07'0 0.4
2018-Jun-06 18:00N 26°05' W 080°07'1 1.3
2018-Jun-06 17:30N 26°06' W 080°06'1 1.5
2018-Jun-06 17:00N 26°06' W 080°05'1 2.8
2018-Jun-06 16:30N 26°05' W 080°07'0 0.0
2018-Jun-06 16:00N 26°05' W 080°07'0 0.0
2018-Jun-06 15:30N 26°05' W 080°07'0 0.0
2018-Jun-06 15:01N 26°05' W 080°07'0 0.0
2018-Jun-06 14:30N 26°05' W 080°07'0 0.0
2018-Jun-06 14:00N 26°05' W 080°07'0 0.0
2018-Jun-06 13:31N 26°05' W 080°07'0 0.0
2018-Jun-06 13:00N 26°05' W 080°07'0 0.0
2018-Jun-06 12:30N 26°05' W 080°07'0 0.0
2018-Jun-06 12:00N 26°05' W 080°07'0 0.0
2018-Jun-06 11:30N 26°05' W 080°07'0 0.0
2018-Jun-06 11:00N 26°05' W 080°07'0 0.0
2018-Jun-06 10:30N 26°05' W 080°07'0 0.0
2018-Jun-06 10:00N 26°05' W 080°07'0 0.0
2018-Jun-06 09:30N 26°05' W 080°07'0 0.0
2018-Jun-06 09:00N 26°05' W 080°07'0 0.0
2018-Jun-06 08:30N 26°05' W 080°07'0 0.0
2018-Jun-06 08:00N 26°05' W 080°07'0 0.0
2018-Jun-06 07:30N 26°05' W 080°07'0 0.0
2018-Jun-06 07:00N 26°05' W 080°07'0 0.0
2018-Jun-06 06:29N 26°05' W 080°07'0 0.0
2018-Jun-06 06:00N 26°05' W 080°07'0 0.0
2018-Jun-06 05:30N 26°05' W 080°07'0 0.0
2018-Jun-06 05:00N 26°05' W 080°07'0 0.0
2018-Jun-06 04:30N 26°05' W 080°07'0 0.0
2018-Jun-06 04:00N 26°05' W 080°07'0 0.0
2018-Jun-06 03:30N 26°05' W 080°07'1 1.5
2018-Jun-06 03:01N 26°04' W 080°07'1 1.8
2018-Jun-06 02:30N 26°05' W 080°07'1 1.9
2018-Jun-06 02:01N 26°06' W 080°06'1 2.2
2018-Jun-06 01:30N 26°05' W 080°07'0 0.0
2018-Jun-06 01:00N 26°05' W 080°07'0 0.0
2018-Jun-06 00:30N 26°05' W 080°07'0 0.0
2018-Jun-06 00:00N 26°05' W 080°07'0 0.0
2018-Jun-05 23:31N 26°05' W 080°07'0 0.0
2018-Jun-05 23:00N 26°05' W 080°07'1 1.5
2018-Jun-05 22:30N 26°06' W 080°07'0 0.0
2018-Jun-05 22:01N 26°06' W 080°07'1 1.8
2018-Jun-05 21:30N 26°06' W 080°06'1 1.7
2018-Jun-05 21:00N 26°05' W 080°07'0 0.0
2018-Jun-05 20:30N 26°05' W 080°07'0 0.0
2018-Jun-05 19:58N 26°05' W 080°07'0 0.0
2018-Jun-05 19:30N 26°05' W 080°07'0 0.0
2018-Jun-05 19:00N 26°05' W 080°07'0 0.0
2018-Jun-05 18:30N 26°05' W 080°07'0 0.0
2018-Jun-05 18:00N 26°05' W 080°07'0 0.0
2018-Jun-05 17:30N 26°05' W 080°07'0 0.0
2018-Jun-05 17:00N 26°05' W 080°07'0 0.0
2018-Jun-05 16:30N 26°05' W 080°07'0 0.0
2018-Jun-05 16:00N 26°05' W 080°07'0 0.0
2018-Jun-05 15:30N 26°05' W 080°07'0 0.0
2018-Jun-05 15:01N 26°05' W 080°07'0 0.0
2018-Jun-05 14:31N 26°05' W 080°07'0 0.0
2018-Jun-05 14:00N 26°05' W 080°07'0 0.0
2018-Jun-05 13:30N 26°05' W 080°07'0 0.0
2018-Jun-05 13:00N 26°05' W 080°07'0 0.0
2018-Jun-05 12:30N 26°05' W 080°07'0 0.0
2018-Jun-05 12:00N 26°05' W 080°07'0 0.0
2018-Jun-05 11:30N 26°05' W 080°07'0 0.0
2018-Jun-05 11:00N 26°05' W 080°07'0 0.0
2018-Jun-05 10:30N 26°05' W 080°07'0 0.0
2018-Jun-05 10:00N 26°05' W 080°07'0 0.0
2018-Jun-05 09:30N 26°05' W 080°07'0 0.0
2018-Jun-05 09:00N 26°05' W 080°07'0 0.0
2018-Jun-05 08:30N 26°05' W 080°07'0 0.0
2018-Jun-05 08:00N 26°05' W 080°07'0 0.0
2018-Jun-05 07:30N 26°05' W 080°07'0 0.0
2018-Jun-05 07:00N 26°05' W 080°07'0 0.0
2018-Jun-05 06:30N 26°05' W 080°07'1 1.5
2018-Jun-05 06:00N 26°04' W 080°07'1 2.7
2018-Jun-05 05:31N 26°05' W 080°07'0 0.4
2018-Jun-05 05:01N 26°06' W 080°07'1 2.2
2018-Jun-05 04:31N 26°04' W 080°07'0 0.4
2018-Jun-05 04:01N 26°04' W 080°07'1 1.1
2018-Jun-05 03:30N 26°05' W 080°07'0 0.0
2018-Jun-05 03:00N 26°05' W 080°07'0 0.0
2018-Jun-05 02:30N 26°05' W 080°07'0 0.0
2018-Jun-05 02:01N 26°05' W 080°07'0 0.0
2018-Jun-05 01:30N 26°05' W 080°07'0 0.0
2018-Jun-05 01:00N 26°05' W 080°07'1 1.7
2018-Jun-05 00:30N 26°06' W 080°07'1 1.7
2018-Jun-05 00:00N 26°05' W 080°07'0 0.0
2018-Jun-04 23:29N 26°05' W 080°07'0 0.0
2018-Jun-04 22:59N 26°05' W 080°07'0 0.0
2018-Jun-04 22:30N 26°05' W 080°07'0 0.0
2018-Jun-04 22:00N 26°05' W 080°07'0 0.0
2018-Jun-04 21:30N 26°05' W 080°07'0 0.0
2018-Jun-04 21:00N 26°05' W 080°07'0 0.0
2018-Jun-04 20:30N 26°05' W 080°07'0 0.0
2018-Jun-04 20:00N 26°05' W 080°07'0 0.0
2018-Jun-04 19:30N 26°05' W 080°07'0 0.0
2018-Jun-04 19:00N 26°05' W 080°07'0 0.0
2018-Jun-04 18:30N 26°05' W 080°07'0 0.0
2018-Jun-04 18:00N 26°05' W 080°07'0 0.0
2018-Jun-04 17:30N 26°05' W 080°07'0 0.0
2018-Jun-04 17:00N 26°05' W 080°07'0 0.0
2018-Jun-04 16:30N 26°05' W 080°07'0 0.0
2018-Jun-04 16:00N 26°05' W 080°07'0 0.0
2018-Jun-04 15:30N 26°05' W 080°07'0 0.0
2018-Jun-04 15:00N 26°05' W 080°07'0 0.0
2018-Jun-04 14:30N 26°05' W 080°07'0 0.0
2018-Jun-04 14:00N 26°05' W 080°07'0 0.0
2018-Jun-04 13:30N 26°05' W 080°07'0 0.0
2018-Jun-04 13:00N 26°05' W 080°07'0 0.0
2018-Jun-04 12:28N 26°05' W 080°07'0 0.0
2018-Jun-04 12:00N 26°05' W 080°07'0 0.0
2018-Jun-04 11:30N 26°05' W 080°07'0 0.0
2018-Jun-04 11:00N 26°05' W 080°07'0 0.0
2018-Jun-04 10:30N 26°05' W 080°07'0 0.0
2018-Jun-04 10:00N 26°05' W 080°07'0 0.0
2018-Jun-04 09:30N 26°05' W 080°07'0 0.0
2018-Jun-04 09:00N 26°05' W 080°07'0 0.0
2018-Jun-04 08:30N 26°05' W 080°07'0 0.0
2018-Jun-04 08:00N 26°05' W 080°07'0 0.0
2018-Jun-04 07:30N 26°05' W 080°07'0 0.7
2018-Jun-04 07:00N 26°05' W 080°07'1 2.1
2018-Jun-04 06:30N 26°04' W 080°07'0 0.1
2018-Jun-04 06:00N 26°04' W 080°07'0 0.0
2018-Jun-04 05:30N 26°04' W 080°07'0 0.0
2018-Jun-04 05:00N 26°04' W 080°07'1 1.8
2018-Jun-04 04:30N 26°05' W 080°07'0 0.9
2018-Jun-04 04:00N 26°06' W 080°07'1 1.3
2018-Jun-04 03:31N 26°05' W 080°07'0 0.0
2018-Jun-04 03:01N 26°05' W 080°07'0 0.0
2018-Jun-04 02:31N 26°05' W 080°07'0 0.0
2018-Jun-04 02:00N 26°05' W 080°07'0 0.0
2018-Jun-04 01:30N 26°05' W 080°07'0 0.0
2018-Jun-04 01:00N 26°05' W 080°07'0 0.0
2018-Jun-04 00:30N 26°05' W 080°07'0 0.0
2018-Jun-04 00:01N 26°05' W 080°07'0 0.0
2018-Jun-03 23:30N 26°05' W 080°07'0 0.0
2018-Jun-03 23:00N 26°05' W 080°07'0 0.0
2018-Jun-03 22:31N 26°05' W 080°07'0 0.0
2018-Jun-03 22:01N 26°05' W 080°07'0 0.0
2018-Jun-03 21:31N 26°05' W 080°07'0 0.0
2018-Jun-03 21:00N 26°05' W 080°07'0 0.0
2018-Jun-03 20:30N 26°05' W 080°07'1 1.5
2018-Jun-03 20:00N 26°04' W 080°07'0 0.8
2018-Jun-03 19:30N 26°05' W 080°07'2 3.1
2018-Jun-03 19:00N 26°06' W 080°06'1 2.3
2018-Jun-03 18:30N 26°06' W 080°07'1 1.9
2018-Jun-03 18:00N 26°05' W 080°07'0 0.2
2018-Jun-03 17:30N 26°05' W 080°07'0 0.2
2018-Jun-03 17:00N 26°05' W 080°07'0 0.6
2018-Jun-03 16:30N 26°05' W 080°07'0 0.0
2018-Jun-03 16:00N 26°05' W 080°07'0 0.0
2018-Jun-03 15:30N 26°05' W 080°07'0 0.0
2018-Jun-03 15:00N 26°05' W 080°07'0 0.0
2018-Jun-03 14:30N 26°05' W 080°07'0 0.0
2018-Jun-03 14:00N 26°05' W 080°07'0 0.0
2018-Jun-03 13:30N 26°05' W 080°07'0 0.0
2018-Jun-03 13:00N 26°05' W 080°07'0 0.0
2018-Jun-03 12:29N 26°05' W 080°07'0 0.0
2018-Jun-03 12:00N 26°05' W 080°07'0 0.0
2018-Jun-03 11:30N 26°05' W 080°07'0 0.0
2018-Jun-03 11:00N 26°05' W 080°07'0 0.0
2018-Jun-03 10:30N 26°05' W 080°07'0 0.0
2018-Jun-03 10:00N 26°05' W 080°07'0 0.0
2018-Jun-03 09:30N 26°05' W 080°07'0 0.0
2018-Jun-03 09:00N 26°05' W 080°07'0 0.0
2018-Jun-03 08:30N 26°05' W 080°07'0 0.0
2018-Jun-03 08:00N 26°05' W 080°07'0 0.0
2018-Jun-03 07:30N 26°05' W 080°07'0 0.0
2018-Jun-03 07:00N 26°05' W 080°07'0 0.0
2018-Jun-03 06:30N 26°05' W 080°07'0 0.0
2018-Jun-03 06:00N 26°05' W 080°07'0 0.0
2018-Jun-03 05:30N 26°05' W 080°07'0 0.0
2018-Jun-03 05:00N 26°05' W 080°07'0 0.0
2018-Jun-03 04:30N 26°05' W 080°07'0 0.0
2018-Jun-03 03:59N 26°05' W 080°07'0 0.0
2018-Jun-03 03:30N 26°05' W 080°07'0 0.0
2018-Jun-03 03:00N 26°05' W 080°07'0 0.0
2018-Jun-03 02:30N 26°05' W 080°07'0 0.0
2018-Jun-03 02:00N 26°05' W 080°07'0 0.0
2018-Jun-03 01:30N 26°05' W 080°07'0 0.0
2018-Jun-03 01:00N 26°05' W 080°07'0 0.0
2018-Jun-03 00:29N 26°05' W 080°07'0 0.0
2018-Jun-03 00:00N 26°05' W 080°07'0 0.0
2018-Jun-02 23:31N 26°05' W 080°07'0 0.0
2018-Jun-02 23:01N 26°05' W 080°07'0 0.0
2018-Jun-02 22:30N 26°05' W 080°07'0 0.0
2018-Jun-02 22:01N 26°05' W 080°07'0 0.0
2018-Jun-02 21:30N 26°05' W 080°07'0 0.0
2018-Jun-02 21:01N 26°05' W 080°07'0 0.0
2018-Jun-02 20:30N 26°05' W 080°07'0 0.0
2018-Jun-02 20:00N 26°05' W 080°07'0 0.0
2018-Jun-02 19:30N 26°05' W 080°07'0 0.6
2018-Jun-02 19:00N 26°05' W 080°07'0 0.8
2018-Jun-02 18:30N 26°04' W 080°07'1 2.5
2018-Jun-02 18:00N 26°05' W 080°07'1 1.1
2018-Jun-02 17:31N 26°06' W 080°06'1 1.7
2018-Jun-02 17:00N 26°05' W 080°07'0 0.0
2018-Jun-02 16:30N 26°05' W 080°07'0 0.0
2018-Jun-02 16:00N 26°05' W 080°07'0 0.0
2018-Jun-02 15:30N 26°05' W 080°07'0 0.0
2018-Jun-02 15:00N 26°05' W 080°07'0 0.0
2018-Jun-02 14:30N 26°05' W 080°07'0 0.0
2018-Jun-02 14:00N 26°05' W 080°07'0 0.0
2018-Jun-02 13:30N 26°05' W 080°07'0 0.0
2018-Jun-02 13:00N 26°05' W 080°07'0 0.0
2018-Jun-02 12:30N 26°05' W 080°07'0 0.0
2018-Jun-02 12:00N 26°05' W 080°07'0 0.0
2018-Jun-02 11:30N 26°05' W 080°07'0 0.0
2018-Jun-02 11:00N 26°05' W 080°07'0 0.0
2018-Jun-02 10:30N 26°05' W 080°07'0 0.0
2018-Jun-02 09:59N 26°05' W 080°07'0 0.0
2018-Jun-02 09:30N 26°05' W 080°07'0 0.0
2018-Jun-02 09:00N 26°05' W 080°07'0 0.0
2018-Jun-02 08:31N 26°05' W 080°07'0 0.0
2018-Jun-02 08:00N 26°05' W 080°07'0 0.0
2018-Jun-02 07:30N 26°05' W 080°07'0 0.0
2018-Jun-02 07:01N 26°05' W 080°07'1 1.6
2018-Jun-02 06:31N 26°06' W 080°07'0 0.1
2018-Jun-02 06:01N 26°06' W 080°07'0 0.8
2018-Jun-02 05:30N 26°05' W 080°07'1 2.4
2018-Jun-02 04:59N 26°04' W 080°07'1 1.7
2018-Jun-02 04:31N 26°05' W 080°07'0 0.0
2018-Jun-02 04:01N 26°05' W 080°07'0 0.0
2018-Jun-02 03:31N 26°05' W 080°07'0 0.0
2018-Jun-02 03:00N 26°05' W 080°07'0 0.0
2018-Jun-02 02:30N 26°05' W 080°07'0 0.0
2018-Jun-02 02:00N 26°05' W 080°07'0 0.0
2018-Jun-02 01:30N 26°05' W 080°07'0 0.0
2018-Jun-02 01:00N 26°05' W 080°07'0 0.0
2018-Jun-02 00:30N 26°05' W 080°07'1 1.7
2018-Jun-02 00:00N 26°04' W 080°07'0 0.6
2018-Jun-01 23:30N 26°04' W 080°07'1 1.0
2018-Jun-01 23:00N 26°05' W 080°07'0 0.0
2018-Jun-01 22:30N 26°05' W 080°07'0 0.0
2018-Jun-01 22:00N 26°05' W 080°07'0 0.0
2018-Jun-01 21:30N 26°05' W 080°07'0 0.0
2018-Jun-01 21:00N 26°05' W 080°07'0 0.0
2018-Jun-01 20:30N 26°05' W 080°07'0 0.0
2018-Jun-01 20:00N 26°05' W 080°07'0 0.0
2018-Jun-01 19:30N 26°05' W 080°07'0 0.0
2018-Jun-01 19:00N 26°05' W 080°07'0 0.1
2018-Jun-01 18:31N 26°05' W 080°07'0 0.2
2018-Jun-01 18:00N 26°05' W 080°07'0 0.2
2018-Jun-01 17:31N 26°05' W 080°07'0 0.0
2018-Jun-01 17:00N 26°05' W 080°07'0 0.0
2018-Jun-01 16:30N 26°05' W 080°07'0 0.0
2018-Jun-01 16:00N 26°05' W 080°07'0 0.0
2018-Jun-01 15:30N 26°05' W 080°07'0 0.0
2018-Jun-01 15:00N 26°05' W 080°07'0 0.0
2018-Jun-01 14:31N 26°05' W 080°07'0 0.0
2018-Jun-01 14:01N 26°05' W 080°07'0 0.0
2018-Jun-01 13:30N 26°05' W 080°07'0 0.0
2018-Jun-01 13:00N 26°05' W 080°07'0 0.0
2018-Jun-01 12:30N 26°05' W 080°07'0 0.0
2018-Jun-01 12:00N 26°05' W 080°07'1 1.5
2018-Jun-01 11:30N 26°06' W 080°07'1 1.2
2018-Jun-01 11:00N 26°06' W 080°07'1 1.4
2018-Jun-01 10:30N 26°05' W 080°07'0 0.0
2018-Jun-01 10:00N 26°05' W 080°07'0 0.0
2018-Jun-01 09:30N 26°05' W 080°07'0 0.0
2018-Jun-01 09:00N 26°05' W 080°07'0 0.0
2018-Jun-01 08:30N 26°05' W 080°07'0 0.0
2018-Jun-01 08:00N 26°05' W 080°07'0 0.0
2018-Jun-01 07:30N 26°05' W 080°07'0 0.0
2018-Jun-01 07:00N 26°05' W 080°07'1 2.0
2018-Jun-01 06:30N 26°04' W 080°07'0 0.6
2018-Jun-01 06:00N 26°04' W 080°07'1 2.5
2018-Jun-01 05:30N 26°05' W 080°07'1 1.1
2018-Jun-01 05:00N 26°05' W 080°07'0 0.0
2018-Jun-01 04:30N 26°05' W 080°07'0 0.0
2018-Jun-01 04:00N 26°05' W 080°07'0 0.0
2018-Jun-01 03:30N 26°05' W 080°07'0 0.0
2018-Jun-01 03:01N 26°05' W 080°07'0 0.0
2018-Jun-01 02:30N 26°05' W 080°07'0 0.0
2018-Jun-01 02:01N 26°05' W 080°07'0 0.0
2018-Jun-01 01:31N 26°05' W 080°07'0 0.0
2018-Jun-01 01:00N 26°05' W 080°07'0 0.0
2018-Jun-01 00:31N 26°05' W 080°07'0 0.0
2018-Jun-01 00:00N 26°05' W 080°07'0 0.0
2018-May-31 23:31N 26°05' W 080°07'0 0.0
2018-May-31 23:00N 26°05' W 080°07'0 0.0
2018-May-31 22:30N 26°05' W 080°07'0 0.0
2018-May-31 22:00N 26°05' W 080°07'0 0.0
2018-May-31 21:30N 26°05' W 080°07'0 0.0
2018-May-31 21:00N 26°05' W 080°07'0 0.0
2018-May-31 20:30N 26°05' W 080°07'0 0.0
2018-May-31 20:00N 26°05' W 080°07'0 0.0
2018-May-31 19:30N 26°05' W 080°07'0 0.0
2018-May-31 19:00N 26°05' W 080°07'1 1.4
2018-May-31 18:30N 26°06' W 080°07'1 1.4
2018-May-31 18:00N 26°05' W 080°07'0 0.0
2018-May-31 17:30N 26°05' W 080°07'0 0.0
2018-May-31 17:00N 26°05' W 080°07'0 0.0
2018-May-31 16:30N 26°05' W 080°07'0 0.0
2018-May-31 16:00N 26°05' W 080°07'0 0.0
2018-May-31 15:30N 26°05' W 080°07'0 0.0
2018-May-31 15:00N 26°05' W 080°07'  
Track history (hours):
 
Tides and Currents Weather Stations Pressure Air Temp Water Temp Dewpoint Dewpoint Depression Visibility Wind Speed Wind Dir Waves Ship Positions

Broward

Owner: SEABULK TOWING, FORT LAUDERDALE, FL. More information available from US FCC via Universal Licensing System and Coast Guard Vessel Documentation Center.

Last reported at 2018-Jun-10 14:50 UTC. Time now 2018-Jun-20 23:03 UTC.
Position N 25°30' W 080°03'.
Warning: this ship's position is 10 days out of date.

Length 30 m; draft 6.5 m.

Type: Tug. MMSI: 366693850.

Date/timePositionNaut miles runAvg speedWind from/ knotsBaromVisibWave heightAir tempDewpointWater temp
2018-Jun-10 14:50N 25°30' W 080°03'3 8.6
2018-Jun-10 14:25N 25°34' W 080°03'8 9.1
2018-Jun-10 13:30N 25°42' W 080°04'5 9.3
2018-Jun-10 13:00N 25°46' W 080°05'5 9.2
2018-Jun-10 12:30N 25°51' W 080°05'5 9.1
2018-Jun-10 11:59N 25°56' W 080°05'5 9.4
2018-Jun-10 11:30N 26°00' W 080°05'4 9.1
2018-Jun-10 11:00N 26°05' W 080°05'2 3.6
2018-Jun-10 10:30N 26°05' W 080°07'0 0.0
2018-Jun-10 10:00N 26°05' W 080°07'0 0.0
2018-Jun-10 09:30N 26°05' W 080°07'0 0.0
2018-Jun-10 09:00N 26°05' W 080°07'0 0.0
2018-Jun-10 08:31N 26°05' W 080°07'0 0.0
2018-Jun-10 08:00N 26°05' W 080°07'0 0.0
2018-Jun-10 07:30N 26°05' W 080°07'0 0.0
2018-Jun-10 06:59N 26°05' W 080°07'0 0.0
2018-Jun-10 06:31N 26°05' W 080°07'0 0.0
2018-Jun-10 06:00N 26°05' W 080°07'0 0.0
2018-Jun-10 05:30N 26°05' W 080°07'0 0.0
2018-Jun-10 05:00N 26°05' W 080°07'0 0.0
2018-Jun-10 04:30N 26°05' W 080°07'0 0.0
2018-Jun-10 04:00N 26°05' W 080°07'0 0.0
2018-Jun-10 03:30N 26°05' W 080°07'0 0.0
2018-Jun-10 03:00N 26°05' W 080°07'0 0.0
2018-Jun-10 02:30N 26°05' W 080°07'0 0.0
2018-Jun-10 02:00N 26°05' W 080°07'0 0.0
2018-Jun-10 01:30N 26°05' W 080°07'0 0.0
2018-Jun-10 01:00N 26°05' W 080°07'0 0.0
2018-Jun-10 00:30N 26°05' W 080°07'0 0.0
2018-Jun-10 00:00N 26°05' W 080°07'0 0.0
2018-Jun-09 23:30N 26°05' W 080°07'0 0.0
2018-Jun-09 23:00N 26°05' W 080°07'0 0.0
2018-Jun-09 22:28N 26°05' W 080°07'0 0.0
2018-Jun-09 22:01N 26°05' W 080°07'0 0.0
2018-Jun-09 21:30N 26°05' W 080°07'0 0.0
2018-Jun-09 21:01N 26°05' W 080°07'0 0.0
2018-Jun-09 20:30N 26°05' W 080°07'0 0.0
2018-Jun-09 20:00N 26°05' W 080°07'0 0.0
2018-Jun-09 19:30N 26°05' W 080°07'0 0.0
2018-Jun-09 19:00N 26°05' W 080°07'0 0.0
2018-Jun-09 18:31N 26°05' W 080°07'0 0.0
2018-Jun-09 18:01N 26°05' W 080°07'1 1.0
2018-Jun-09 17:30N 26°04' W 080°07'0 0.5
2018-Jun-09 17:00N 26°04' W 080°07'1 1.5
2018-Jun-09 16:31N 26°05' W 080°07'0 0.0
2018-Jun-09 16:00N 26°05' W 080°07'0 0.0
2018-Jun-09 15:00N 26°05' W 080°07'0 0.0
2018-Jun-09 14:30N 26°05' W 080°07'0 0.0
2018-Jun-09 14:00N 26°05' W 080°07'0 0.0
2018-Jun-09 13:30N 26°05' W 080°07'0 0.0
2018-Jun-09 13:00N 26°05' W 080°07'0 0.0
2018-Jun-09 12:30N 26°05' W 080°07'0 0.0
2018-Jun-09 12:00N 26°05' W 080°07'0 0.0
2018-Jun-09 11:30N 26°05' W 080°07'0 0.0
2018-Jun-09 11:00N 26°05' W 080°07'0 0.0
2018-Jun-09 10:30N 26°05' W 080°07'0 0.0
2018-Jun-09 10:00N 26°05' W 080°07'0 0.0
2018-Jun-09 09:30N 26°05' W 080°07'0 0.0
2018-Jun-09 09:00N 26°05' W 080°07'0 0.0
2018-Jun-09 08:30N 26°05' W 080°07'0 0.0
2018-Jun-09 08:00N 26°05' W 080°07'0 0.0
2018-Jun-09 07:30N 26°05' W 080°07'1 1.8
2018-Jun-09 07:00N 26°04' W 080°07'2 3.5
2018-Jun-09 06:30N 26°06' W 080°06'1 1.2
2018-Jun-09 06:01N 26°06' W 080°05'2 3.4
2018-Jun-09 05:30N 26°05' W 080°07'0 0.2
2018-Jun-09 05:01N 26°05' W 080°07'1 2.0
2018-Jun-09 04:30N 26°06' W 080°06'1 1.6
2018-Jun-09 03:59N 26°05' W 080°07'0 0.0
2018-Jun-09 03:30N 26°05' W 080°07'0 0.0
2018-Jun-09 03:01N 26°05' W 080°07'0 0.0
2018-Jun-09 02:30N 26°05' W 080°07'0 0.0
2018-Jun-09 02:00N 26°05' W 080°07'0 0.0
2018-Jun-09 01:31N 26°05' W 080°07'0 0.0
2018-Jun-09 01:00N 26°05' W 080°07'0 0.0
2018-Jun-09 00:30N 26°05' W 080°07'0 0.0
2018-Jun-09 00:00N 26°05' W 080°07'0 0.0
2018-Jun-08 23:30N 26°05' W 080°07'0 0.0
2018-Jun-08 23:00N 26°05' W 080°07'0 0.0
2018-Jun-08 22:30N 26°05' W 080°07'0 0.0
2018-Jun-08 22:00N 26°05' W 080°07'0 0.0
2018-Jun-08 21:30N 26°05' W 080°07'0 0.0
2018-Jun-08 21:00N 26°05' W 080°07'0 0.0
2018-Jun-08 20:29N 26°05' W 080°07'0 0.0
2018-Jun-08 20:00N 26°05' W 080°07'0 0.0
2018-Jun-08 19:30N 26°05' W 080°07'0 0.0
2018-Jun-08 18:59N 26°05' W 080°07'0 0.0
2018-Jun-08 18:30N 26°05' W 080°07'0 0.0
2018-Jun-08 18:00N 26°05' W 080°07'0 0.0
2018-Jun-08 17:30N 26°05' W 080°07'0 0.0
2018-Jun-08 17:01N 26°05' W 080°07'0 0.0
2018-Jun-08 16:30N 26°05' W 080°07'0 0.0
2018-Jun-08 16:00N 26°05' W 080°07'0 0.0
2018-Jun-08 15:31N 26°05' W 080°07'0 0.0
2018-Jun-08 15:00N 26°05' W 080°07'0 0.0
2018-Jun-08 14:30N 26°05' W 080°07'1 1.5
2018-Jun-08 14:00N 26°04' W 080°07'2 3.7
2018-Jun-08 13:30N 26°06' W 080°06'1 2.7
2018-Jun-08 13:00N 26°05' W 080°07'0 0.0
2018-Jun-08 12:30N 26°05' W 080°07'0 0.0
2018-Jun-08 12:00N 26°05' W 080°07'0 0.0
2018-Jun-08 11:29N 26°05' W 080°07'0 0.0
2018-Jun-08 11:00N 26°05' W 080°07'0 0.0
2018-Jun-08 10:30N 26°05' W 080°07'0 0.0
2018-Jun-08 10:00N 26°05' W 080°07'0 0.0
2018-Jun-08 09:30N 26°05' W 080°07'0 0.0
2018-Jun-08 09:00N 26°05' W 080°07'0 0.0
2018-Jun-08 08:30N 26°05' W 080°07'0 0.0
2018-Jun-08 08:00N 26°05' W 080°07'0 0.0
2018-Jun-08 07:30N 26°05' W 080°07'0 0.0
2018-Jun-08 07:00N 26°05' W 080°07'0 0.0
2018-Jun-08 06:30N 26°05' W 080°07'0 0.9
2018-Jun-08 06:00N 26°05' W 080°07'0 0.9
2018-Jun-08 05:30N 26°06' W 080°07'0 0.3
2018-Jun-08 04:59N 26°06' W 080°07'0 0.6
2018-Jun-08 04:30N 26°06' W 080°07'1 2.9
2018-Jun-08 04:00N 26°06' W 080°05'1 2.9
2018-Jun-08 03:30N 26°06' W 080°07'0 0.7
2018-Jun-08 03:00N 26°06' W 080°07'1 1.4
2018-Jun-08 02:29N 26°05' W 080°07'0 0.0
2018-Jun-08 02:00N 26°05' W 080°07'0 0.0
2018-Jun-08 01:30N 26°05' W 080°07'0 0.0
2018-Jun-08 01:00N 26°05' W 080°07'0 0.0
2018-Jun-08 00:29N 26°05' W 080°07'0 0.0
2018-Jun-08 00:00N 26°05' W 080°07'0 0.0
2018-Jun-07 23:30N 26°05' W 080°07'0 0.0
2018-Jun-07 23:00N 26°05' W 080°07'0 0.0
2018-Jun-07 22:30N 26°05' W 080°07'0 0.0
2018-Jun-07 22:00N 26°05' W 080°07'0 0.0
2018-Jun-07 21:30N 26°05' W 080°07'0 0.0
2018-Jun-07 21:00N 26°05' W 080°07'0 0.1
2018-Jun-07 20:30N 26°05' W 080°07'0 0.4
2018-Jun-07 20:00N 26°05' W 080°07'1 1.9
2018-Jun-07 19:30N 26°04' W 080°07'1 1.3
2018-Jun-07 19:00N 26°05' W 080°07'0 0.2
2018-Jun-07 18:30N 26°05' W 080°07'0 0.0
2018-Jun-07 18:00N 26°05' W 080°07'0 0.0
2018-Jun-07 17:30N 26°05' W 080°07'0 0.0
2018-Jun-07 17:00N 26°05' W 080°07'0 0.0
2018-Jun-07 16:30N 26°05' W 080°07'0 0.0
2018-Jun-07 16:00N 26°05' W 080°07'0 0.0
2018-Jun-07 15:30N 26°05' W 080°07'0 0.0
2018-Jun-07 15:00N 26°05' W 080°07'0 0.0
2018-Jun-07 14:31N 26°05' W 080°07'0 0.0
2018-Jun-07 14:00N 26°05' W 080°07'0 0.0
2018-Jun-07 13:31N 26°05' W 080°07'0 0.0
2018-Jun-07 13:00N 26°05' W 080°07'0 0.0
2018-Jun-07 12:30N 26°05' W 080°07'0 0.0
2018-Jun-07 12:00N 26°05' W 080°07'0 0.0
2018-Jun-07 11:30N 26°05' W 080°07'0 0.0
2018-Jun-07 11:00N 26°05' W 080°07'0 0.0
2018-Jun-07 10:31N 26°05' W 080°07'0 0.0
2018-Jun-07 10:00N 26°05' W 080°07'0 0.0
2018-Jun-07 09:30N 26°05' W 080°07'0 0.0
2018-Jun-07 09:00N 26°05' W 080°07'0 0.0
2018-Jun-07 08:31N 26°05' W 080°07'0 0.0
2018-Jun-07 08:01N 26°05' W 080°07'1 1.3
2018-Jun-07 07:30N 26°06' W 080°07'0 0.5
2018-Jun-07 07:00N 26°06' W 080°07'0 0.7
2018-Jun-07 06:29N 26°05' W 080°07'0 0.0
2018-Jun-07 06:00N 26°05' W 080°07'0 0.0
2018-Jun-07 05:30N 26°05' W 080°07'1 2.5
2018-Jun-07 05:00N 26°04' W 080°07'1 1.7
2018-Jun-07 04:30N 26°05' W 080°07'1 1.2
2018-Jun-07 04:00N 26°06' W 080°07'1 2.9
2018-Jun-07 03:30N 26°04' W 080°07'1 1.6
2018-Jun-07 03:00N 26°05' W 080°07'0 0.0
2018-Jun-07 02:30N 26°05' W 080°07'0 0.0
2018-Jun-07 01:59N 26°05' W 080°07'0 0.0
2018-Jun-07 01:30N 26°05' W 080°07'0 0.0
2018-Jun-07 01:00N 26°05' W 080°07'0 0.0
2018-Jun-07 00:30N 26°05' W 080°07'0 0.0
2018-Jun-07 00:00N 26°05' W 080°07'0 0.0
2018-Jun-06 23:30N 26°05' W 080°07'0 0.0
2018-Jun-06 23:00N 26°05' W 080°07'0 0.0
2018-Jun-06 22:30N 26°05' W 080°07'0 0.0
2018-Jun-06 22:00N 26°05' W 080°07'0 0.0
2018-Jun-06 21:30N 26°05' W 080°07'0 0.0
2018-Jun-06 21:00N 26°05' W 080°07'0 0.0
2018-Jun-06 20:30N 26°05' W 080°07'0 0.0
2018-Jun-06 20:00N 26°05' W 080°07'0 0.0
2018-Jun-06 19:30N 26°05' W 080°07'0 0.0
2018-Jun-06 19:00N 26°05' W 080°07'0 0.0
2018-Jun-06 18:30N 26°05' W 080°07'0 0.4
2018-Jun-06 18:00N 26°05' W 080°07'1 1.3
2018-Jun-06 17:30N 26°06' W 080°06'1 1.5
2018-Jun-06 17:00N 26°06' W 080°05'1 2.8
2018-Jun-06 16:30N 26°05' W 080°07'0 0.0
2018-Jun-06 16:00N 26°05' W 080°07'0 0.0
2018-Jun-06 15:30N 26°05' W 080°07'0 0.0
2018-Jun-06 15:01N 26°05' W 080°07'0 0.0
2018-Jun-06 14:30N 26°05' W 080°07'0 0.0
2018-Jun-06 14:00N 26°05' W 080°07'0 0.0
2018-Jun-06 13:31N 26°05' W 080°07'0 0.0
2018-Jun-06 13:00N 26°05' W 080°07'0 0.0
2018-Jun-06 12:30N 26°05' W 080°07'0 0.0
2018-Jun-06 12:00N 26°05' W 080°07'0 0.0
2018-Jun-06 11:30N 26°05' W 080°07'0 0.0
2018-Jun-06 11:00N 26°05' W 080°07'0 0.0
2018-Jun-06 10:30N 26°05' W 080°07'0 0.0
2018-Jun-06 10:00N 26°05' W 080°07'0 0.0
2018-Jun-06 09:30N 26°05' W 080°07'0 0.0
2018-Jun-06 09:00N 26°05' W 080°07'0 0.0
2018-Jun-06 08:30N 26°05' W 080°07'0 0.0
2018-Jun-06 08:00N 26°05' W 080°07'0 0.0
2018-Jun-06 07:30N 26°05' W 080°07'0 0.0
2018-Jun-06 07:00N 26°05' W 080°07'0 0.0
2018-Jun-06 06:29N 26°05' W 080°07'0 0.0
2018-Jun-06 06:00N 26°05' W 080°07'0 0.0
2018-Jun-06 05:30N 26°05' W 080°07'0 0.0
2018-Jun-06 05:00N 26°05' W 080°07'0 0.0
2018-Jun-06 04:30N 26°05' W 080°07'0 0.0
2018-Jun-06 04:00N 26°05' W 080°07'0 0.0
2018-Jun-06 03:30N 26°05' W 080°07'1 1.5
2018-Jun-06 03:01N 26°04' W 080°07'1 1.8
2018-Jun-06 02:30N 26°05' W 080°07'1 1.9
2018-Jun-06 02:01N 26°06' W 080°06'1 2.2
2018-Jun-06 01:30N 26°05' W 080°07'0 0.0
2018-Jun-06 01:00N 26°05' W 080°07'0 0.0
2018-Jun-06 00:30N 26°05' W 080°07'0 0.0
2018-Jun-06 00:00N 26°05' W 080°07'0 0.0
2018-Jun-05 23:31N 26°05' W 080°07'0 0.0
2018-Jun-05 23:00N 26°05' W 080°07'1 1.5
2018-Jun-05 22:30N 26°06' W 080°07'0 0.0
2018-Jun-05 22:01N 26°06' W 080°07'1 1.8
2018-Jun-05 21:30N 26°06' W 080°06'1 1.7
2018-Jun-05 21:00N 26°05' W 080°07'0 0.0
2018-Jun-05 20:30N 26°05' W 080°07'0 0.0
2018-Jun-05 19:58N 26°05' W 080°07'0 0.0
2018-Jun-05 19:30N 26°05' W 080°07'0 0.0
2018-Jun-05 19:00N 26°05' W 080°07'0 0.0
2018-Jun-05 18:30N 26°05' W 080°07'0 0.0
2018-Jun-05 18:00N 26°05' W 080°07'0 0.0
2018-Jun-05 17:30N 26°05' W 080°07'0 0.0
2018-Jun-05 17:00N 26°05' W 080°07'0 0.0
2018-Jun-05 16:30N 26°05' W 080°07'0 0.0
2018-Jun-05 16:00N 26°05' W 080°07'0 0.0
2018-Jun-05 15:30N 26°05' W 080°07'0 0.0
2018-Jun-05 15:01N 26°05' W 080°07'0 0.0
2018-Jun-05 14:31N 26°05' W 080°07'0 0.0
2018-Jun-05 14:00N 26°05' W 080°07'0 0.0
2018-Jun-05 13:30N 26°05' W 080°07'0 0.0
2018-Jun-05 13:00N 26°05' W 080°07'0 0.0
2018-Jun-05 12:30N 26°05' W 080°07'0 0.0
2018-Jun-05 12:00N 26°05' W 080°07'0 0.0
2018-Jun-05 11:30N 26°05' W 080°07'0 0.0
2018-Jun-05 11:00N 26°05' W 080°07'0 0.0
2018-Jun-05 10:30N 26°05' W 080°07'0 0.0
2018-Jun-05 10:00N 26°05' W 080°07'0 0.0
2018-Jun-05 09:30N 26°05' W 080°07'0 0.0
2018-Jun-05 09:00N 26°05' W 080°07'0 0.0
2018-Jun-05 08:30N 26°05' W 080°07'0 0.0
2018-Jun-05 08:00N 26°05' W 080°07'0 0.0
2018-Jun-05 07:30N 26°05' W 080°07'0 0.0
2018-Jun-05 07:00N 26°05' W 080°07'0 0.0
2018-Jun-05 06:30N 26°05' W 080°07'1 1.5
2018-Jun-05 06:00N 26°04' W 080°07'1 2.7
2018-Jun-05 05:31N 26°05' W 080°07'0 0.4
2018-Jun-05 05:01N 26°06' W 080°07'1 2.2
2018-Jun-05 04:31N 26°04' W 080°07'0 0.4
2018-Jun-05 04:01N 26°04' W 080°07'1 1.1
2018-Jun-05 03:30N 26°05' W 080°07'0 0.0
2018-Jun-05 03:00N 26°05' W 080°07'0 0.0
2018-Jun-05 02:30N 26°05' W 080°07'0 0.0
2018-Jun-05 02:01N 26°05' W 080°07'0 0.0
2018-Jun-05 01:30N 26°05' W 080°07'0 0.0
2018-Jun-05 01:00N 26°05' W 080°07'1 1.7
2018-Jun-05 00:30N 26°06' W 080°07'1 1.7
2018-Jun-05 00:00N 26°05' W 080°07'0 0.0
2018-Jun-04 23:29N 26°05' W 080°07'0 0.0
2018-Jun-04 22:59N 26°05' W 080°07'0 0.0
2018-Jun-04 22:30N 26°05' W 080°07'0 0.0
2018-Jun-04 22:00N 26°05' W 080°07'0 0.0
2018-Jun-04 21:30N 26°05' W 080°07'0 0.0
2018-Jun-04 21:00N 26°05' W 080°07'0 0.0
2018-Jun-04 20:30N 26°05' W 080°07'0 0.0
2018-Jun-04 20:00N 26°05' W 080°07'0 0.0
2018-Jun-04 19:30N 26°05' W 080°07'0 0.0
2018-Jun-04 19:00N 26°05' W 080°07'0 0.0
2018-Jun-04 18:30N 26°05' W 080°07'0 0.0
2018-Jun-04 18:00N 26°05' W 080°07'0 0.0
2018-Jun-04 17:30N 26°05' W 080°07'0 0.0
2018-Jun-04 17:00N 26°05' W 080°07'0 0.0
2018-Jun-04 16:30N 26°05' W 080°07'0 0.0
2018-Jun-04 16:00N 26°05' W 080°07'0 0.0
2018-Jun-04 15:30N 26°05' W 080°07'0 0.0
2018-Jun-04 15:00N 26°05' W 080°07'0 0.0
2018-Jun-04 14:30N 26°05' W 080°07'0 0.0
2018-Jun-04 14:00N 26°05' W 080°07'0 0.0
2018-Jun-04 13:30N 26°05' W 080°07'0 0.0
2018-Jun-04 13:00N 26°05' W 080°07'0 0.0
2018-Jun-04 12:28N 26°05' W 080°07'0 0.0
2018-Jun-04 12:00N 26°05' W 080°07'0 0.0
2018-Jun-04 11:30N 26°05' W 080°07'0 0.0
2018-Jun-04 11:00N 26°05' W 080°07'0 0.0
2018-Jun-04 10:30N 26°05' W 080°07'0 0.0
2018-Jun-04 10:00N 26°05' W 080°07'0 0.0
2018-Jun-04 09:30N 26°05' W 080°07'0 0.0
2018-Jun-04 09:00N 26°05' W 080°07'0 0.0
2018-Jun-04 08:30N 26°05' W 080°07'0 0.0
2018-Jun-04 08:00N 26°05' W 080°07'0 0.0
2018-Jun-04 07:30N 26°05' W 080°07'0 0.7
2018-Jun-04 07:00N 26°05' W 080°07'1 2.1
2018-Jun-04 06:30N 26°04' W 080°07'0 0.1
2018-Jun-04 06:00N 26°04' W 080°07'0 0.0
2018-Jun-04 05:30N 26°04' W 080°07'0 0.0
2018-Jun-04 05:00N 26°04' W 080°07'1 1.8
2018-Jun-04 04:30N 26°05' W 080°07'0 0.9
2018-Jun-04 04:00N 26°06' W 080°07'1 1.3
2018-Jun-04 03:31N 26°05' W 080°07'0 0.0
2018-Jun-04 03:01N 26°05' W 080°07'0 0.0
2018-Jun-04 02:31N 26°05' W 080°07'0 0.0
2018-Jun-04 02:00N 26°05' W 080°07'0 0.0
2018-Jun-04 01:30N 26°05' W 080°07'0 0.0
2018-Jun-04 01:00N 26°05' W 080°07'0 0.0
2018-Jun-04 00:30N 26°05' W 080°07'0 0.0
2018-Jun-04 00:01N 26°05' W 080°07'0 0.0
2018-Jun-03 23:30N 26°05' W 080°07'0 0.0
2018-Jun-03 23:00N 26°05' W 080°07'0 0.0
2018-Jun-03 22:31N 26°05' W 080°07'0 0.0
2018-Jun-03 22:01N 26°05' W 080°07'0 0.0
2018-Jun-03 21:31N 26°05' W 080°07'0 0.0
2018-Jun-03 21:00N 26°05' W 080°07'0 0.0
2018-Jun-03 20:30N 26°05' W 080°07'1 1.5
2018-Jun-03 20:00N 26°04' W 080°07'0 0.8
2018-Jun-03 19:30N 26°05' W 080°07'2 3.1
2018-Jun-03 19:00N 26°06' W 080°06'1 2.3
2018-Jun-03 18:30N 26°06' W 080°07'1 1.9
2018-Jun-03 18:00N 26°05' W 080°07'0 0.2
2018-Jun-03 17:30N 26°05' W 080°07'0 0.2
2018-Jun-03 17:00N 26°05' W 080°07'0 0.6
2018-Jun-03 16:30N 26°05' W 080°07'0 0.0
2018-Jun-03 16:00N 26°05' W 080°07'0 0.0
2018-Jun-03 15:30N 26°05' W 080°07'0 0.0
2018-Jun-03 15:00N 26°05' W 080°07'0 0.0
2018-Jun-03 14:30N 26°05' W 080°07'0 0.0
2018-Jun-03 14:00N 26°05' W 080°07'0 0.0
2018-Jun-03 13:30N 26°05' W 080°07'0 0.0
2018-Jun-03 13:00N 26°05' W 080°07'0 0.0
2018-Jun-03 12:29N 26°05' W 080°07'0 0.0
2018-Jun-03 12:00N 26°05' W 080°07'0 0.0
2018-Jun-03 11:30N 26°05' W 080°07'0 0.0
2018-Jun-03 11:00N 26°05' W 080°07'0 0.0
2018-Jun-03 10:30N 26°05' W 080°07'0 0.0
2018-Jun-03 10:00N 26°05' W 080°07'0 0.0
2018-Jun-03 09:30N 26°05' W 080°07'0 0.0
2018-Jun-03 09:00N 26°05' W 080°07'0 0.0
2018-Jun-03 08:30N 26°05' W 080°07'0 0.0
2018-Jun-03 08:00N 26°05' W 080°07'0 0.0
2018-Jun-03 07:30N 26°05' W 080°07'0 0.0
2018-Jun-03 07:00N 26°05' W 080°07'0 0.0
2018-Jun-03 06:30N 26°05' W 080°07'0 0.0
2018-Jun-03 06:00N 26°05' W 080°07'0 0.0
2018-Jun-03 05:30N 26°05' W 080°07'0 0.0
2018-Jun-03 05:00N 26°05' W 080°07'0 0.0
2018-Jun-03 04:30N 26°05' W 080°07'0 0.0
2018-Jun-03 03:59N 26°05' W 080°07'0 0.0
2018-Jun-03 03:30N 26°05' W 080°07'0 0.0
2018-Jun-03 03:00N 26°05' W 080°07'0 0.0
2018-Jun-03 02:30N 26°05' W 080°07'0 0.0
2018-Jun-03 02:00N 26°05' W 080°07'0 0.0
2018-Jun-03 01:30N 26°05' W 080°07'0 0.0
2018-Jun-03 01:00N 26°05' W 080°07'0 0.0
2018-Jun-03 00:29N 26°05' W 080°07'0 0.0
2018-Jun-03 00:00N 26°05' W 080°07'0 0.0
2018-Jun-02 23:31N 26°05' W 080°07'0 0.0
2018-Jun-02 23:01N 26°05' W 080°07'0 0.0
2018-Jun-02 22:30N 26°05' W 080°07'0 0.0
2018-Jun-02 22:01N 26°05' W 080°07'0 0.0
2018-Jun-02 21:30N 26°05' W 080°07'0 0.0
2018-Jun-02 21:01N 26°05' W 080°07'0 0.0
2018-Jun-02 20:30N 26°05' W 080°07'0 0.0
2018-Jun-02 20:00N 26°05' W 080°07'0 0.0
2018-Jun-02 19:30N 26°05' W 080°07'0 0.6
2018-Jun-02 19:00N 26°05' W 080°07'0 0.8
2018-Jun-02 18:30N 26°04' W 080°07'1 2.5
2018-Jun-02 18:00N 26°05' W 080°07'1 1.1
2018-Jun-02 17:31N 26°06' W 080°06'1 1.7
2018-Jun-02 17:00N 26°05' W 080°07'0 0.0
2018-Jun-02 16:30N 26°05' W 080°07'0 0.0
2018-Jun-02 16:00N 26°05' W 080°07'0 0.0
2018-Jun-02 15:30N 26°05' W 080°07'0 0.0
2018-Jun-02 15:00N 26°05' W 080°07'0 0.0
2018-Jun-02 14:30N 26°05' W 080°07'0 0.0
2018-Jun-02 14:00N 26°05' W 080°07'0 0.0
2018-Jun-02 13:30N 26°05' W 080°07'0 0.0
2018-Jun-02 13:00N 26°05' W 080°07'0 0.0
2018-Jun-02 12:30N 26°05' W 080°07'0 0.0
2018-Jun-02 12:00N 26°05' W 080°07'0 0.0
2018-Jun-02 11:30N 26°05' W 080°07'0 0.0
2018-Jun-02 11:00N 26°05' W 080°07'0 0.0
2018-Jun-02 10:30N 26°05' W 080°07'0 0.0
2018-Jun-02 09:59N 26°05' W 080°07'0 0.0
2018-Jun-02 09:30N 26°05' W 080°07'0 0.0
2018-Jun-02 09:00N 26°05' W 080°07'0 0.0
2018-Jun-02 08:31N 26°05' W 080°07'0 0.0
2018-Jun-02 08:00N 26°05' W 080°07'0 0.0
2018-Jun-02 07:30N 26°05' W 080°07'0 0.0
2018-Jun-02 07:01N 26°05' W 080°07'1 1.6
2018-Jun-02 06:31N 26°06' W 080°07'0 0.1
2018-Jun-02 06:01N 26°06' W 080°07'0 0.8
2018-Jun-02 05:30N 26°05' W 080°07'1 2.4
2018-Jun-02 04:59N 26°04' W 080°07'1 1.7
2018-Jun-02 04:31N 26°05' W 080°07'0 0.0
2018-Jun-02 04:01N 26°05' W 080°07'0 0.0
2018-Jun-02 03:31N 26°05' W 080°07'0 0.0
2018-Jun-02 03:00N 26°05' W 080°07'0 0.0
2018-Jun-02 02:30N 26°05' W 080°07'0 0.0
2018-Jun-02 02:00N 26°05' W 080°07'0 0.0
2018-Jun-02 01:30N 26°05' W 080°07'0 0.0
2018-Jun-02 01:00N 26°05' W 080°07'0 0.0
2018-Jun-02 00:30N 26°05' W 080°07'1 1.7
2018-Jun-02 00:00N 26°04' W 080°07'0 0.6
2018-Jun-01 23:30N 26°04' W 080°07'1 1.0
2018-Jun-01 23:00N 26°05' W 080°07'0 0.0
2018-Jun-01 22:30N 26°05' W 080°07'0 0.0
2018-Jun-01 22:00N 26°05' W 080°07'0 0.0
2018-Jun-01 21:30N 26°05' W 080°07'0 0.0
2018-Jun-01 21:00N 26°05' W 080°07'0 0.0
2018-Jun-01 20:30N 26°05' W 080°07'0 0.0
2018-Jun-01 20:00N 26°05' W 080°07'0 0.0
2018-Jun-01 19:30N 26°05' W 080°07'0 0.0
2018-Jun-01 19:00N 26°05' W 080°07'0 0.1
2018-Jun-01 18:31N 26°05' W 080°07'0 0.2
2018-Jun-01 18:00N 26°05' W 080°07'0 0.2
2018-Jun-01 17:31N 26°05' W 080°07'0 0.0
2018-Jun-01 17:00N 26°05' W 080°07'0 0.0
2018-Jun-01 16:30N 26°05' W 080°07'0 0.0
2018-Jun-01 16:00N 26°05' W 080°07'0 0.0
2018-Jun-01 15:30N 26°05' W 080°07'0 0.0
2018-Jun-01 15:00N 26°05' W 080°07'0 0.0
2018-Jun-01 14:31N 26°05' W 080°07'0 0.0
2018-Jun-01 14:01N 26°05' W 080°07'0 0.0
2018-Jun-01 13:30N 26°05' W 080°07'0 0.0
2018-Jun-01 13:00N 26°05' W 080°07'0 0.0
2018-Jun-01 12:30N 26°05' W 080°07'0 0.0
2018-Jun-01 12:00N 26°05' W 080°07'1 1.5
2018-Jun-01 11:30N 26°06' W 080°07'1 1.2
2018-Jun-01 11:00N 26°06' W 080°07'1 1.4
2018-Jun-01 10:30N 26°05' W 080°07'0 0.0
2018-Jun-01 10:00N 26°05' W 080°07'0 0.0
2018-Jun-01 09:30N 26°05' W 080°07'0 0.0
2018-Jun-01 09:00N 26°05' W 080°07'0 0.0
2018-Jun-01 08:30N 26°05' W 080°07'0 0.0
2018-Jun-01 08:00N 26°05' W 080°07'0 0.0
2018-Jun-01 07:30N 26°05' W 080°07'0 0.0
2018-Jun-01 07:00N 26°05' W 080°07'1 2.0
2018-Jun-01 06:30N 26°04' W 080°07'0 0.6
2018-Jun-01 06:00N 26°04' W 080°07'1 2.5
2018-Jun-01 05:30N 26°05' W 080°07'1 1.1
2018-Jun-01 05:00N 26°05' W 080°07'0 0.0
2018-Jun-01 04:30N 26°05' W 080°07'0 0.0
2018-Jun-01 04:00N 26°05' W 080°07'0 0.0
2018-Jun-01 03:30N 26°05' W 080°07'0 0.0
2018-Jun-01 03:01N 26°05' W 080°07'0 0.0
2018-Jun-01 02:30N 26°05' W 080°07'0 0.0
2018-Jun-01 02:01N 26°05' W 080°07'0 0.0
2018-Jun-01 01:31N 26°05' W 080°07'0 0.0
2018-Jun-01 01:00N 26°05' W 080°07'0 0.0
2018-Jun-01 00:31N 26°05' W 080°07'0 0.0
2018-Jun-01 00:00N 26°05' W 080°07'0 0.0
2018-May-31 23:31N 26°05' W 080°07'0 0.0
2018-May-31 23:00N 26°05' W 080°07'0 0.0
2018-May-31 22:30N 26°05' W 080°07'0 0.0
2018-May-31 22:00N 26°05' W 080°07'0 0.0
2018-May-31 21:30N 26°05' W 080°07'0 0.0
2018-May-31 21:00N 26°05' W 080°07'0 0.0
2018-May-31 20:30N 26°05' W 080°07'0 0.0
2018-May-31 20:00N 26°05' W 080°07'0 0.0
2018-May-31 19:30N 26°05' W 080°07'0 0.0
2018-May-31 19:00N 26°05' W 080°07'1 1.4
2018-May-31 18:30N 26°06' W 080°07'1 1.4
2018-May-31 18:00N 26°05' W 080°07'0 0.0
2018-May-31 17:30N 26°05' W 080°07'0 0.0
2018-May-31 17:00N 26°05' W 080°07'0 0.0
2018-May-31 16:30N 26°05' W 080°07'0 0.0
2018-May-31 16:00N 26°05' W 080°07'0 0.0
2018-May-31 15:30N 26°05' W 080°07'0 0.0
2018-May-31 15:00N 26°05' W 080°07'  

Dump ship's entire track history